createdAt,value
2023-02-08T00:00:02.209Z,70.06
2023-02-08T00:03:04.667Z,70.37
2023-02-08T00:06:07.459Z,70.65
2023-02-08T00:09:09.049Z,71.18
2023-02-08T00:12:10.531Z,71.78
2023-02-08T00:15:12.058Z,71.97
2023-02-08T00:18:13.964Z,72.21
2023-02-08T00:21:17.618Z,72.94
2023-02-08T00:24:19.343Z,73.41
2023-02-08T00:27:21.079Z,73.14
2023-02-08T00:30:22.662Z,73.42
2023-02-08T00:33:24.259Z,74.20
2023-02-08T00:36:25.710Z,74.96
2023-02-08T00:39:27.129Z,74.49
2023-02-08T00:42:29.516Z,74.90
2023-02-08T00:45:32.882Z,73.68
2023-02-08T00:48:34.326Z,72.84
2023-02-08T00:51:35.869Z,72.76
2023-02-08T00:54:37.479Z,73.09
2023-02-08T00:57:40.248Z,73.00
2023-02-08T01:00:41.987Z,73.05
2023-02-08T01:03:44.273Z,73.16
2023-02-08T01:06:46.031Z,72.67
2023-02-08T01:09:47.496Z,72.24
2023-02-08T01:12:48.950Z,72.11
2023-02-08T01:15:50.910Z,71.29
2023-02-08T01:18:54.286Z,71.63
2023-02-08T01:21:56.328Z,71.32
2023-02-08T01:24:58.271Z,70.67
2023-02-08T01:27:59.841Z,70.05
2023-02-08T01:31:08.441Z,70.21
2023-02-08T01:34:11.420Z,69.98
2023-02-08T01:37:12.919Z,69.38
2023-02-08T01:40:14.486Z,69.23
2023-02-08T01:43:22.579Z,69.08
2023-02-08T01:46:24.122Z,67.91
2023-02-08T01:49:29.954Z,66.01
2023-02-08T01:52:31.531Z,65.95
2023-02-08T01:55:38.320Z,66.09
2023-02-08T01:58:44.873Z,65.74
2023-02-08T02:01:48.998Z,65.58
2023-02-08T02:04:52.312Z,65.47
2023-02-08T02:07:55.641Z,65.25
2023-02-08T02:10:57.090Z,65.16
2023-02-08T02:13:59.082Z,65.22
2023-02-08T02:17:01.483Z,65.24
2023-02-08T02:20:24.261Z,65.48
2023-02-08T02:23:50.111Z,65.12
2023-02-08T02:27:25.013Z,65.68
2023-02-08T02:30:50.941Z,65.05
2023-02-08T02:34:01.308Z,64.71
2023-02-08T02:37:10.494Z,65.21
2023-02-08T02:40:14.757Z,65.11
2023-02-08T02:43:42.334Z,65.51
2023-02-08T02:46:52.657Z,65.06
2023-02-08T02:50:02.581Z,64.61
2023-02-08T02:53:11.325Z,63.76
2023-02-08T02:56:18.112Z,62.94
2023-02-08T02:59:20.175Z,62.47
2023-02-08T03:02:22.069Z,62.03
2023-02-08T03:05:23.618Z,59.79
2023-02-08T03:08:46.172Z,60.47
2023-02-08T03:12:06.963Z,60.76
2023-02-08T03:15:17.625Z,60.26
2023-02-08T03:19:05.955Z,61.00
2023-02-08T03:22:25.720Z,60.94
2023-02-08T03:25:36.635Z,61.16
2023-02-08T03:28:46.873Z,60.73
2023-02-08T03:31:56.093Z,60.25
2023-02-08T03:35:04.682Z,59.97
2023-02-08T03:38:13.142Z,59.62
2023-02-08T03:41:22.713Z,59.85
2023-02-08T03:44:37.135Z,60.04
2023-02-08T03:47:42.865Z,60.29
2023-02-08T03:50:48.184Z,60.58
2023-02-08T03:53:53.583Z,61.52
2023-02-08T03:57:08.007Z,60.98
2023-02-08T04:00:13.224Z,61.08
2023-02-08T04:03:23.399Z,61.37
2023-02-08T04:06:25.047Z,61.69
2023-02-08T04:09:26.527Z,62.04
2023-02-08T04:12:27.971Z,62.25
2023-02-08T04:15:29.429Z,61.48
2023-02-08T04:18:31.195Z,60.53
2023-02-08T04:21:33.288Z,58.73
2023-02-08T04:24:34.724Z,56.63
2023-02-08T04:27:36.273Z,56.14
2023-02-08T04:30:37.754Z,55.10
2023-02-08T04:33:39.261Z,55.50
2023-02-08T04:36:41.045Z,55.79
2023-02-08T04:39:42.537Z,55.07
2023-02-08T04:42:43.992Z,54.70
2023-02-08T04:45:45.507Z,53.75
2023-02-08T04:48:46.981Z,53.40
2023-02-08T04:51:48.412Z,53.48
2023-02-08T04:54:49.941Z,53.27
2023-02-08T04:57:51.608Z,53.73
2023-02-08T05:00:53.050Z,53.65
2023-02-08T05:03:55.014Z,53.95
2023-02-08T05:06:56.462Z,53.51
2023-02-08T05:09:57.915Z,53.78
2023-02-08T05:12:59.691Z,52.33
2023-02-08T05:16:01.210Z,51.95
2023-02-08T05:19:02.713Z,52.00
2023-02-08T05:22:04.159Z,51.68
2023-02-08T05:25:06.449Z,51.41
2023-02-08T05:28:07.948Z,51.79
2023-02-08T05:31:11.782Z,52.00
2023-02-08T05:34:13.379Z,51.76
2023-02-08T05:37:14.826Z,51.44
2023-02-08T05:40:16.409Z,51.98
2023-02-08T05:43:17.919Z,51.54
2023-02-08T05:46:19.442Z,51.20
2023-02-08T05:49:20.900Z,51.53
2023-02-08T05:52:22.370Z,51.25
2023-02-08T05:55:23.916Z,51.51
2023-02-08T05:58:25.591Z,50.61
2023-02-08T06:01:27.306Z,50.76
2023-02-08T06:04:28.954Z,51.02
2023-02-08T06:07:30.458Z,51.48
2023-02-08T06:10:32.099Z,51.83
2023-02-08T06:13:33.765Z,51.86
2023-02-08T06:16:35.328Z,51.80
2023-02-08T06:19:36.833Z,51.39
2023-02-08T06:22:38.458Z,50.89
2023-02-08T06:25:39.921Z,50.86
2023-02-08T06:28:41.367Z,51.65
2023-02-08T06:31:42.949Z,51.45
2023-02-08T06:34:44.576Z,51.34
2023-02-08T06:37:46.008Z,50.59
2023-02-08T06:40:48.070Z,51.00
2023-02-08T06:43:49.527Z,50.90
2023-02-08T06:46:51.354Z,51.99
2023-02-08T06:49:53.461Z,52.50
2023-02-08T06:52:55.001Z,51.89
2023-02-08T06:55:56.735Z,52.22
2023-02-08T06:58:58.313Z,51.10
2023-02-08T07:02:01.310Z,51.11
2023-02-08T07:05:03.106Z,49.62
2023-02-08T07:08:05.423Z,50.41
2023-02-08T07:11:11.360Z,50.66
2023-02-08T07:14:14.500Z,48.63
2023-02-08T07:17:16.040Z,49.33
2023-02-08T07:20:17.615Z,49.91
2023-02-08T07:23:19.052Z,50.21
2023-02-08T07:26:20.477Z,50.02
2023-02-08T07:29:22.063Z,49.60
2023-02-08T07:32:23.569Z,49.03
2023-02-08T07:35:25.059Z,49.34
2023-02-08T07:38:26.648Z,48.69
2023-02-08T07:41:28.540Z,48.68
2023-02-08T07:44:30.151Z,48.19
2023-02-08T07:47:31.686Z,48.05
2023-02-08T07:50:33.288Z,49.80
2023-02-08T07:53:35.098Z,52.89
2023-02-08T07:56:36.746Z,54.98
2023-02-08T07:59:38.211Z,56.74
2023-02-08T08:02:39.805Z,59.52
2023-02-08T08:05:41.732Z,59.96
2023-02-08T08:08:47.253Z,61.08
2023-02-08T08:11:48.801Z,62.36
2023-02-08T08:14:51.389Z,62.67
2023-02-08T08:17:53.265Z,64.23
2023-02-08T08:20:54.789Z,64.63
2023-02-08T08:23:56.324Z,65.24
2023-02-08T08:26:57.968Z,64.98
2023-02-08T08:29:59.931Z,65.04
2023-02-08T08:33:01.425Z,65.42
2023-02-08T08:36:02.980Z,65.27
2023-02-08T08:39:04.509Z,65.42
2023-02-08T08:42:06.063Z,64.99
2023-02-08T08:45:08.632Z,64.95
2023-02-08T08:48:10.817Z,65.09
2023-02-08T08:51:12.673Z,65.26
2023-02-08T08:54:14.297Z,64.72
2023-02-08T08:57:16.304Z,64.38
2023-02-08T09:00:17.991Z,63.98
2023-02-08T09:08:07.423Z,64.74
2023-02-08T09:11:11.776Z,64.87
2023-02-08T09:14:13.360Z,65.33
2023-02-08T09:17:14.847Z,65.69
2023-02-08T09:20:16.584Z,65.89
2023-02-08T09:23:18.024Z,66.10
2023-02-08T09:26:20.163Z,65.30
2023-02-08T09:29:21.618Z,65.75
2023-02-08T09:32:23.243Z,65.28
2023-02-08T09:35:24.847Z,65.95
2023-02-08T09:38:26.856Z,65.70
2023-02-08T09:41:36.830Z,65.29
2023-02-08T09:45:00.341Z,65.03
2023-02-08T09:48:14.063Z,64.70
2023-02-08T09:51:38.905Z,64.51
2023-02-08T09:54:46.454Z,63.12
2023-02-08T09:57:53.353Z,63.09
2023-02-08T10:00:55.789Z,62.75
2023-02-08T10:04:19.880Z,63.36
2023-02-08T10:07:21.366Z,63.27
2023-02-08T10:10:43.772Z,62.91
2023-02-08T10:13:48.406Z,62.85
2023-02-08T10:17:14.192Z,62.75
2023-02-08T10:20:40.043Z,62.76
2023-02-08T10:23:56.820Z,62.78
2023-02-08T10:27:04.590Z,63.04
2023-02-08T10:30:11.850Z,63.21
2023-02-08T10:33:29.109Z,62.86
2023-02-08T10:36:41.821Z,62.32
2023-02-08T10:39:43.787Z,61.84
2023-02-08T10:43:00.672Z,62.02
2023-02-08T10:46:08.379Z,62.20
2023-02-08T10:49:09.831Z,61.26
2023-02-08T10:52:11.372Z,62.05
2023-02-08T10:55:15.137Z,61.05
2023-02-08T10:58:20.240Z,61.14
2023-02-08T11:01:22.442Z,60.69
2023-02-08T11:04:24.491Z,60.07
2023-02-08T11:07:26.042Z,60.05
2023-02-08T11:10:27.780Z,59.61
2023-02-08T11:13:51.377Z,59.04
2023-02-08T11:16:57.198Z,58.30
2023-02-08T11:19:59.790Z,58.68
2023-02-08T11:23:01.431Z,57.31
2023-02-08T11:26:33.761Z,57.35
2023-02-08T11:29:35.272Z,57.53
2023-02-08T11:32:36.841Z,57.42
2023-02-08T11:35:38.389Z,57.46
2023-02-08T11:38:42.948Z,57.18
2023-02-08T11:41:47.668Z,57.26
2023-02-08T11:44:50.086Z,57.07
2023-02-08T11:47:52.487Z,56.61
2023-02-08T11:51:00.895Z,56.13
2023-02-08T11:54:04.551Z,56.33
2023-02-08T11:57:19.233Z,56.42
2023-02-08T12:00:25.382Z,56.42
2023-02-08T12:03:36.281Z,55.58
2023-02-08T12:06:43.966Z,55.74
2023-02-08T12:10:19.791Z,55.87
2023-02-08T12:13:36.396Z,55.00
2023-02-08T12:16:51.225Z,55.41
2023-02-08T12:20:23.162Z,55.53
2023-02-08T12:23:49.885Z,55.04
2023-02-08T12:27:00.454Z,55.51
2023-02-08T12:30:30.342Z,54.89
2023-02-08T12:33:33.518Z,54.78
2023-02-08T12:37:12.280Z,55.33
2023-02-08T12:40:49.702Z,54.90
2023-02-08T12:44:10.767Z,55.18
2023-02-08T12:47:33.549Z,54.42
2023-02-08T12:50:49.462Z,54.02
2023-02-08T12:53:56.144Z,54.65
2023-02-08T12:57:02.336Z,54.94
2023-02-08T13:00:15.670Z,55.14
2023-02-08T13:03:32.792Z,55.15
2023-02-08T13:06:43.504Z,56.08
2023-02-08T13:10:06.401Z,55.96
2023-02-08T13:13:19.224Z,56.56
2023-02-08T13:16:27.418Z,56.72
2023-02-08T13:19:48.188Z,56.55
2023-02-08T13:23:03.959Z,56.42
2023-02-08T13:26:19.542Z,56.52
2023-02-08T13:29:23.189Z,56.27
2023-02-08T13:32:52.324Z,56.43
2023-02-08T13:35:54.616Z,55.91
2023-02-08T13:38:59.478Z,56.28
2023-02-08T13:42:03.187Z,56.58
2023-02-08T13:45:06.355Z,56.53
2023-02-08T13:48:12.318Z,56.29
2023-02-08T13:51:28.971Z,56.25
2023-02-08T13:54:30.692Z,56.94
2023-02-08T13:57:55.634Z,56.54
2023-02-08T14:00:57.026Z,56.03
2023-02-08T14:04:07.652Z,55.83
2023-02-08T14:07:12.159Z,56.15
2023-02-08T14:10:24.830Z,56.03
2023-02-08T14:13:34.900Z,56.01
2023-02-08T14:16:39.621Z,56.51
2023-02-08T14:19:44.407Z,56.17
2023-02-08T14:22:55.212Z,56.33
2023-02-08T14:26:00.440Z,56.54
2023-02-08T14:29:05.169Z,55.58
2023-02-08T14:32:07.031Z,56.11
2023-02-08T14:35:11.565Z,55.88
2023-02-08T14:38:19.256Z,55.50
2023-02-08T14:41:44.882Z,55.49
2023-02-08T14:44:55.826Z,55.62
2023-02-08T14:48:05.183Z,55.71
2023-02-08T14:51:09.455Z,55.67
2023-02-08T14:54:21.861Z,54.99
2023-02-08T14:57:28.900Z,53.59
2023-02-08T15:00:35.349Z,53.43
2023-02-08T15:03:39.700Z,53.70
2023-02-08T15:07:11.396Z,55.09
2023-02-08T15:10:16.340Z,55.10
2023-02-08T15:13:24.145Z,55.68
2023-02-08T15:16:34.090Z,55.30
2023-02-08T15:19:43.102Z,55.34
2023-02-08T15:22:45.461Z,55.33
2023-02-08T15:26:02.992Z,56.17
2023-02-08T15:29:17.984Z,56.60
2023-02-08T15:32:22.666Z,57.14
2023-02-08T15:35:25.898Z,57.27
2023-02-08T15:38:29.242Z,57.38
2023-02-08T15:41:38.062Z,57.39
2023-02-08T15:44:43.769Z,57.80
2023-02-08T15:47:45.630Z,58.17
2023-02-08T15:50:47.808Z,58.48
2023-02-08T15:53:52.473Z,58.42
2023-02-08T15:57:02.316Z,58.46
2023-02-08T16:00:23.020Z,58.86
2023-02-08T16:03:26.489Z,58.96
2023-02-08T16:06:36.986Z,59.19
2023-02-08T16:09:38.754Z,59.43
2023-02-08T16:12:40.293Z,59.99
2023-02-08T16:15:45.608Z,60.31
2023-02-08T16:19:01.573Z,60.11
2023-02-08T16:22:28.225Z,60.54
2023-02-08T16:25:29.711Z,60.52
2023-02-08T16:28:33.558Z,60.79
2023-02-08T16:31:35.797Z,61.78
2023-02-08T16:34:38.580Z,62.53
2023-02-08T16:37:40.262Z,63.86
2023-02-08T16:40:48.921Z,65.32
2023-02-08T16:44:22.625Z,65.98
2023-02-08T16:47:35.278Z,66.89
2023-02-08T16:50:38.237Z,68.06
2023-02-08T16:53:42.599Z,69.20
2023-02-08T16:56:46.569Z,69.28
2023-02-08T16:59:48.098Z,69.90
2023-02-08T17:02:50.552Z,70.30
2023-02-08T17:05:52.545Z,70.50
2023-02-08T17:08:54.051Z,71.02
2023-02-08T17:11:55.558Z,71.81
2023-02-08T17:14:57.028Z,71.94
2023-02-08T17:17:58.562Z,72.34
2023-02-08T17:21:01.565Z,72.60
2023-02-08T17:24:03.268Z,73.36
2023-02-08T17:27:05.037Z,72.99
2023-02-08T17:30:06.853Z,73.00
2023-02-08T17:33:11.570Z,73.41
2023-02-08T17:36:14.724Z,74.00
2023-02-08T17:39:17.812Z,74.17
2023-02-08T17:42:19.269Z,74.79
2023-02-08T17:45:21.185Z,74.34
2023-02-08T17:48:22.652Z,74.30
2023-02-08T17:51:24.685Z,74.40
2023-02-08T17:54:26.134Z,74.88
2023-02-08T17:57:30.389Z,75.06
2023-02-08T18:00:34.590Z,75.27
2023-02-08T18:03:36.571Z,75.49
2023-02-08T18:06:38.083Z,75.49
2023-02-08T18:09:39.520Z,75.90
2023-02-08T18:12:41.656Z,76.26
2023-02-08T18:15:44.289Z,76.17
2023-02-08T18:18:46.060Z,76.78
2023-02-08T18:21:47.566Z,76.82
2023-02-08T18:24:49.164Z,77.56
2023-02-08T18:27:50.669Z,78.11
2023-02-08T18:30:52.310Z,77.84
2023-02-08T18:33:54.402Z,78.41
2023-02-08T18:36:55.994Z,78.80
2023-02-08T18:39:57.529Z,78.52
2023-02-08T18:42:58.958Z,78.94
2023-02-08T18:46:12.528Z,79.27
2023-02-08T18:49:15.997Z,79.76
2023-02-08T18:52:17.472Z,79.16
2023-02-08T18:55:18.905Z,79.82
2023-02-08T18:58:20.829Z,79.18
2023-02-08T19:01:24.294Z,79.48
2023-02-08T19:04:26.352Z,79.61
2023-02-08T19:07:27.833Z,80.04
2023-02-08T19:10:29.248Z,79.82
2023-02-08T19:13:31.764Z,79.98
2023-02-08T19:16:35.846Z,80.06
2023-02-08T19:19:37.351Z,80.09
2023-02-08T19:22:38.819Z,81.04
2023-02-08T19:25:40.351Z,80.35
2023-02-08T19:28:41.894Z,80.70
2023-02-08T19:31:44.269Z,80.53
2023-02-08T19:34:45.838Z,80.27
2023-02-08T19:37:50.399Z,80.43
2023-02-08T19:40:55.418Z,79.86
2023-02-08T19:43:56.899Z,80.17
2023-02-08T19:46:58.606Z,80.72
2023-02-08T19:50:00.149Z,80.62
2023-02-08T19:53:01.759Z,80.75
2023-02-08T19:56:08.617Z,79.97
2023-02-08T19:59:22.495Z,79.63
2023-02-08T20:02:27.235Z,78.93
2023-02-08T20:05:28.814Z,78.68
2023-02-08T20:08:30.619Z,78.26
2023-02-08T20:11:37.083Z,78.45
2023-02-08T20:14:40.137Z,78.23
2023-02-08T20:17:42.373Z,77.55
2023-02-08T20:20:44.045Z,77.28
2023-02-08T20:23:45.831Z,76.66
2023-02-08T20:26:48.157Z,76.03
2023-02-08T20:29:49.624Z,75.84
2023-02-08T20:32:52.723Z,76.31
2023-02-08T20:35:55.295Z,76.92
2023-02-08T20:38:57.961Z,77.03
2023-02-08T20:41:59.442Z,76.78
2023-02-08T20:45:00.946Z,76.91
2023-02-08T20:48:02.397Z,76.87
2023-02-08T20:51:06.099Z,77.70
2023-02-08T20:54:07.736Z,78.18
2023-02-08T20:57:11.091Z,77.97
2023-02-08T21:00:13.405Z,78.19
2023-02-08T21:03:15.082Z,78.48
2023-02-08T21:06:19.707Z,78.48
2023-02-08T21:09:21.281Z,78.68
2023-02-08T21:12:22.827Z,78.85
2023-02-08T21:15:24.461Z,79.48
2023-02-08T21:18:25.926Z,79.34
2023-02-08T21:21:28.238Z,79.22
2023-02-08T21:24:30.785Z,79.57
2023-02-08T21:27:32.336Z,80.03
2023-02-08T21:30:33.895Z,80.13
2023-02-08T21:33:35.488Z,80.19
2023-02-08T21:36:37.096Z,80.53
2023-02-08T21:39:38.678Z,80.72
2023-02-08T21:42:40.235Z,80.54
2023-02-08T21:45:41.900Z,81.71
2023-02-08T21:49:02.245Z,82.09
2023-02-08T21:52:22.267Z,82.43
2023-02-08T21:55:23.802Z,82.41
2023-02-08T21:58:25.567Z,82.15
2023-02-08T22:01:27.033Z,81.49
2023-02-08T22:04:28.603Z,81.40
2023-02-08T22:07:42.179Z,81.85
2023-02-08T22:10:53.354Z,81.54
2023-02-08T22:13:59.188Z,81.73
2023-02-08T22:17:00.748Z,81.49
2023-02-08T22:20:02.509Z,81.88
2023-02-08T22:23:04.935Z,81.71
2023-02-08T22:26:10.352Z,82.09
2023-02-08T22:29:12.146Z,81.65
2023-02-08T22:32:16.873Z,81.48
2023-02-08T22:35:18.847Z,81.21
2023-02-08T22:38:20.406Z,81.29
2023-02-08T22:41:22.621Z,81.26
2023-02-08T22:44:24.171Z,81.61
2023-02-08T22:47:25.656Z,81.70
2023-02-08T22:50:27.139Z,82.02
2023-02-08T22:53:28.688Z,82.43
2023-02-08T22:56:30.196Z,82.93
2023-02-08T22:59:33.555Z,82.83
2023-02-08T23:02:35.124Z,83.20
2023-02-08T23:05:44.407Z,82.90
2023-02-08T23:08:46.172Z,82.70
2023-02-08T23:11:47.710Z,82.40
2023-02-08T23:14:49.848Z,82.59
2023-02-08T23:17:51.378Z,82.79
2023-02-08T23:20:54.457Z,82.54
2023-02-08T23:23:55.924Z,82.75
2023-02-08T23:26:57.419Z,82.68
2023-02-08T23:29:58.897Z,82.89
2023-02-08T23:33:00.795Z,83.03
2023-02-08T23:36:14.355Z,82.83
2023-02-08T23:39:15.922Z,83.27
2023-02-08T23:42:26.442Z,83.71
2023-02-08T23:45:28.561Z,83.54
2023-02-08T23:48:30.057Z,83.15
2023-02-08T23:51:31.494Z,84.07
2023-02-08T23:54:32.934Z,83.92
2023-02-08T23:57:35.988Z,83.98
